Accueil
METAR-TAF:

METAR-TAF

Aéroports :

Grand Rapids/Itasca County Airport (Gordon Newstrom Field)

Grand Rapids, Minnesota, États-Unis

latitude: 47-13N, longitude: 093-31W, altitude: 413 m

Observation

Le bulletin a été fait il y a 1 heure et 5 minutes, à 14:56 UTC
Vent 7 kt de nord-ouest
Température 25°C
Humidité 41%
Pression 1012 hPa
Visibilité: 16.1 km

METAR: KGPZ 021456Z AUTO 31007KT 10SM 25/11 A2987 RMK AO2 SLP108 T02500111 51009 $

Heure: 11:01 (16:01 UTC)


TAF: absent

Observations et prévisions météorologiques de plus de 4000 aéroports (messages METAR et TAF).

Les stations disponibles sont représentées par des disques jaunes et rouges sur la carte.

Passer la souris dessus pour voir le nom de la station.

Cliquer dessus pour voir les observations et prévisions météorologiques.

Pour changer de carte: cliquez sur les boutons verts avec une croix noire pour zoomer, sur le bouton vert avec un tiret pour effectuer un zoom arrière, ou sur les flèches vertes pour les cartes adjacentes.


METAR-TAF: